createdAt,value
2023-04-17T00:02:05.716Z,66.60
2023-04-17T00:04:35.578Z,66.60
2023-04-17T00:07:07.183Z,66.60
2023-04-17T00:09:36.183Z,66.50
2023-04-17T00:12:05.793Z,66.60
2023-04-17T00:14:35.023Z,66.60
2023-04-17T00:17:03.917Z,66.50
2023-04-17T00:19:30.818Z,66.50
2023-04-17T00:21:57.648Z,66.50
2023-04-17T00:24:26.931Z,66.50
2023-04-17T00:26:57.104Z,66.50
2023-04-17T00:29:24.162Z,66.60
2023-04-17T00:31:51.177Z,66.50
2023-04-17T00:34:20.552Z,66.50
2023-04-17T00:36:47.374Z,66.60
2023-04-17T00:39:16.712Z,66.70
2023-04-17T00:41:48.182Z,66.60
2023-04-17T00:44:17.306Z,66.70
2023-04-17T00:46:49.364Z,66.70
2023-04-17T00:49:22.277Z,66.80
2023-04-17T00:51:50.339Z,66.80
2023-04-17T00:54:19.086Z,66.80
2023-04-17T00:56:51.505Z,66.70
2023-04-17T00:59:18.815Z,66.70
2023-04-17T01:01:51.509Z,66.80
2023-04-17T01:04:23.325Z,66.80
2023-04-17T01:06:53.495Z,66.80
2023-04-17T01:09:20.331Z,66.80
2023-04-17T01:11:49.416Z,66.90
2023-04-17T01:14:18.593Z,66.80
2023-04-17T01:16:48.662Z,66.90
2023-04-17T01:19:16.829Z,66.90
2023-04-17T01:21:43.659Z,66.90
2023-04-17T01:24:13.161Z,66.90
2023-04-17T01:26:43.666Z,66.90
2023-04-17T01:29:10.936Z,66.90
2023-04-17T01:31:44.930Z,66.90
2023-04-17T01:34:11.911Z,67.00
2023-04-17T01:36:38.741Z,67.00
2023-04-17T01:39:07.730Z,67.00
2023-04-17T01:41:36.679Z,67.00
2023-04-17T01:44:08.199Z,67.00
2023-04-17T01:46:37.429Z,67.00
2023-04-17T01:49:06.531Z,67.00
2023-04-17T01:51:33.417Z,66.90
2023-04-17T01:54:04.881Z,67.00
2023-04-17T01:56:34.202Z,67.10
2023-04-17T01:59:03.268Z,67.00
2023-04-17T02:01:32.834Z,67.00
2023-04-17T02:04:00.036Z,67.10
2023-04-17T02:06:27.342Z,67.00
2023-04-17T02:08:54.286Z,67.00
2023-04-17T02:11:21.508Z,67.10
2023-04-17T02:13:51.019Z,67.10
2023-04-17T02:16:23.326Z,67.10
2023-04-17T02:18:51.712Z,67.20
2023-04-17T02:21:23.699Z,67.20
2023-04-17T02:23:52.527Z,67.20
2023-04-17T02:26:21.856Z,67.20
2023-04-17T02:28:51.113Z,67.30
2023-04-17T02:31:18.084Z,67.20
2023-04-17T02:33:46.276Z,67.20
2023-04-17T02:36:16.183Z,67.20
2023-04-17T02:38:44.490Z,67.30
2023-04-17T02:41:13.331Z,67.30
2023-04-17T02:43:46.313Z,67.20
2023-04-17T02:46:13.188Z,67.30
2023-04-17T02:48:40.063Z,67.20
2023-04-17T02:51:07.264Z,67.30
2023-04-17T02:53:34.205Z,67.30
2023-04-17T02:56:03.820Z,67.30
2023-04-17T02:58:32.672Z,67.80
2023-04-17T03:01:04.087Z,67.20
2023-04-17T03:03:38.760Z,67.30
2023-04-17T03:06:09.822Z,67.30
2023-04-17T03:08:38.428Z,67.90
2023-04-17T03:11:06.602Z,67.30
2023-04-17T03:13:38.696Z,67.30
2023-04-17T03:16:08.199Z,67.30
2023-04-17T03:18:43.090Z,67.30
2023-04-17T03:21:12.296Z,68.00
2023-04-17T03:23:41.437Z,67.40
2023-04-17T03:26:10.926Z,67.30
2023-04-17T03:28:42.193Z,67.30
2023-04-17T03:31:11.201Z,67.30
2023-04-17T03:33:40.869Z,67.30
2023-04-17T03:36:09.879Z,67.20
2023-04-17T03:38:42.104Z,67.20
2023-04-17T03:41:11.560Z,67.20
2023-04-17T03:43:41.369Z,67.20
2023-04-17T03:46:17.226Z,67.30
2023-04-17T03:48:44.105Z,67.20
2023-04-17T03:51:10.965Z,67.20
2023-04-17T03:53:39.070Z,67.20
2023-04-17T03:56:09.321Z,67.20
2023-04-17T03:58:43.937Z,67.20
2023-04-17T04:01:14.531Z,67.20
2023-04-17T04:03:56.015Z,67.20
2023-04-17T04:06:23.178Z,67.20
2023-04-17T04:08:54.619Z,67.20
2023-04-17T04:11:23.941Z,67.20
2023-04-17T04:13:50.978Z,67.20
2023-04-17T04:16:20.220Z,67.30
2023-04-17T04:18:48.657Z,67.30
2023-04-17T04:21:16.788Z,67.30
2023-04-17T04:23:45.514Z,67.30
2023-04-17T04:26:17.163Z,67.30
2023-04-17T04:28:50.279Z,67.40
2023-04-17T04:31:30.572Z,67.40
2023-04-17T04:34:02.857Z,67.40
2023-04-17T04:36:35.999Z,67.40
2023-04-17T04:39:20.558Z,67.50
2023-04-17T04:41:50.529Z,67.50
2023-04-17T04:44:24.408Z,67.60
2023-04-17T04:46:55.739Z,67.60
2023-04-17T04:49:22.798Z,67.60
2023-04-17T04:51:55.130Z,67.60
2023-04-17T04:54:28.352Z,67.70
2023-04-17T04:57:01.383Z,67.70
2023-04-17T04:59:28.767Z,67.80
2023-04-17T05:02:11.627Z,67.80
2023-04-17T05:04:41.263Z,67.80
2023-04-17T05:07:08.218Z,67.80
2023-04-17T05:09:37.161Z,67.80
2023-04-17T05:12:05.658Z,67.80
2023-04-17T05:14:35.659Z,67.90
2023-04-17T05:17:05.569Z,67.90
2023-04-17T05:19:39.781Z,67.90
2023-04-17T05:22:09.489Z,67.90
2023-04-17T05:24:47.032Z,67.90
2023-04-17T05:27:19.429Z,68.00
2023-04-17T05:29:49.015Z,68.00
2023-04-17T05:32:19.036Z,68.00
2023-04-17T05:35:03.636Z,68.10
2023-04-17T05:37:32.832Z,68.10
2023-04-17T05:40:07.010Z,68.10
2023-04-17T05:42:35.040Z,68.20
2023-04-17T05:45:02.076Z,68.20
2023-04-17T05:47:28.995Z,68.30
2023-04-17T05:49:58.194Z,68.40
2023-04-17T05:52:30.317Z,68.40
2023-04-17T05:55:08.201Z,68.40
2023-04-17T05:57:38.198Z,68.40
2023-04-17T06:00:13.050Z,68.40
2023-04-17T06:02:45.917Z,68.60
2023-04-17T06:05:21.304Z,68.50
2023-04-17T06:07:50.872Z,68.50
2023-04-17T06:10:17.766Z,68.50
2023-04-17T06:12:45.274Z,68.60
2023-04-17T06:15:12.473Z,68.50
2023-04-17T06:17:42.510Z,68.60
2023-04-17T06:20:11.173Z,68.60
2023-04-17T06:22:44.157Z,68.60
2023-04-17T06:25:14.160Z,68.50
2023-04-17T06:27:44.542Z,68.50
2023-04-17T06:30:11.777Z,68.60
2023-04-17T06:32:50.765Z,68.60
2023-04-17T06:35:19.163Z,68.60
2023-04-17T06:37:55.014Z,68.60
2023-04-17T06:40:22.146Z,68.70
2023-04-17T06:42:55.003Z,68.70
2023-04-17T06:45:24.775Z,68.60
2023-04-17T06:47:51.683Z,68.60
2023-04-17T06:50:21.586Z,68.60
2023-04-17T06:52:53.096Z,68.60
2023-04-17T06:55:20.131Z,68.70
2023-04-17T06:57:46.996Z,68.60
2023-04-17T07:00:14.872Z,68.70
2023-04-17T07:02:41.876Z,68.60
2023-04-17T07:05:12.257Z,68.60
2023-04-17T07:07:43.417Z,68.50
2023-04-17T07:10:15.678Z,68.50
2023-04-17T07:12:45.366Z,68.50
2023-04-17T07:15:14.838Z,68.40
2023-04-17T07:17:41.854Z,68.40
2023-04-17T07:20:11.987Z,68.30
2023-04-17T07:22:41.594Z,68.20
2023-04-17T07:25:08.617Z,68.10
2023-04-17T07:27:39.284Z,68.20
2023-04-17T07:30:10.633Z,68.20
2023-04-17T07:32:37.580Z,68.10
2023-04-17T07:35:07.639Z,68.10
2023-04-17T07:37:35.324Z,68.00
2023-04-17T07:40:10.064Z,68.00
2023-04-17T07:42:41.621Z,68.00
2023-04-17T07:45:17.971Z,67.80
2023-04-17T07:47:44.934Z,67.80
2023-04-17T07:50:14.387Z,67.70
2023-04-17T07:52:41.257Z,67.70
2023-04-17T07:55:08.663Z,67.70
2023-04-17T07:57:42.717Z,67.60
2023-04-17T08:00:16.741Z,67.60
2023-04-17T08:02:44.104Z,67.50
2023-04-17T08:05:11.108Z,67.50
2023-04-17T08:07:38.072Z,67.50
2023-04-17T08:10:05.990Z,67.50
2023-04-17T08:12:34.992Z,67.50
2023-04-17T08:15:04.292Z,67.50
2023-04-17T08:17:33.699Z,67.40
2023-04-17T08:20:07.593Z,67.40
2023-04-17T08:22:43.159Z,67.30
2023-04-17T08:25:15.417Z,67.20
2023-04-17T08:27:47.603Z,67.20
2023-04-17T08:30:18.519Z,67.20
2023-04-17T08:32:52.347Z,67.20
2023-04-17T08:35:19.405Z,67.10
2023-04-17T08:37:48.526Z,67.10
2023-04-17T08:40:18.499Z,67.00
2023-04-17T08:42:47.782Z,67.00
2023-04-17T08:45:15.031Z,67.00
2023-04-17T08:47:45.654Z,67.00
2023-04-17T08:50:18.973Z,67.00
2023-04-17T08:52:51.907Z,67.00
2023-04-17T08:55:28.981Z,67.00
2023-04-17T08:58:03.800Z,67.00
2023-04-17T09:00:37.357Z,67.10
2023-04-17T09:03:15.250Z,67.00
2023-04-17T09:05:48.389Z,67.00
2023-04-17T09:08:21.374Z,66.90
2023-04-17T09:10:54.659Z,67.00
2023-04-17T09:13:26.079Z,67.00
2023-04-17T09:16:06.699Z,66.80
2023-04-17T09:18:37.666Z,66.70
2023-04-17T09:21:06.476Z,66.80
2023-04-17T09:23:54.213Z,66.80
2023-04-17T09:26:33.174Z,66.60
2023-04-17T09:29:12.431Z,66.70
2023-04-17T09:31:42.512Z,66.90
2023-04-17T09:34:15.587Z,67.00
2023-04-17T09:36:47.428Z,67.10
2023-04-17T09:39:24.294Z,67.10
2023-04-17T09:42:06.012Z,67.00
2023-04-17T09:44:36.821Z,67.30
2023-04-17T09:47:11.182Z,67.30
2023-04-17T09:49:49.570Z,67.30
2023-04-17T09:52:16.888Z,67.20
2023-04-17T09:54:51.144Z,67.00
2023-04-17T09:57:21.111Z,66.70
2023-04-17T09:59:57.440Z,66.50
2023-04-17T10:02:26.349Z,66.00
2023-04-17T10:04:54.797Z,65.80
2023-04-17T10:07:23.983Z,65.50
2023-04-17T10:09:53.190Z,65.30
2023-04-17T10:12:21.137Z,65.20
2023-04-17T10:14:54.944Z,65.00
2023-04-17T10:17:31.643Z,64.80
2023-04-17T10:20:23.453Z,64.80
2023-04-17T10:22:55.818Z,64.30
2023-04-17T10:25:27.797Z,64.80
2023-04-17T10:28:03.045Z,64.70
2023-04-17T10:30:55.524Z,64.50
2023-04-17T10:33:28.884Z,64.30
2023-04-17T10:35:58.989Z,64.90
2023-04-17T10:38:38.074Z,64.70
2023-04-17T10:41:11.208Z,64.20
2023-04-17T10:43:44.582Z,64.20
2023-04-17T10:46:14.451Z,63.90
2023-04-17T10:48:52.952Z,63.90
2023-04-17T10:51:23.022Z,63.60
2023-04-17T10:53:51.543Z,63.80
2023-04-17T10:56:49.245Z,63.90
2023-04-17T10:59:23.383Z,63.70
2023-04-17T11:01:50.818Z,64.10
2023-04-17T11:04:25.297Z,64.20
2023-04-17T11:06:54.186Z,64.40
2023-04-17T11:09:28.307Z,64.60
2023-04-17T11:11:59.089Z,64.70
2023-04-17T11:14:26.633Z,64.70
2023-04-17T11:16:55.985Z,64.50
2023-04-17T11:19:29.726Z,64.20
2023-04-17T11:21:58.402Z,63.70
2023-04-17T11:24:32.283Z,63.50
2023-04-17T11:27:04.605Z,62.50
2023-04-17T11:29:36.064Z,62.60
2023-04-17T11:32:10.046Z,62.40
2023-04-17T11:34:39.598Z,62.30
2023-04-17T11:37:06.523Z,62.10
2023-04-17T11:39:36.744Z,62.20
2023-04-17T11:42:04.010Z,62.10
2023-04-17T11:44:33.265Z,62.10
2023-04-17T11:47:01.962Z,62.00
2023-04-17T11:49:31.720Z,62.00
2023-04-17T11:52:05.087Z,62.00
2023-04-17T11:54:39.232Z,61.80
2023-04-17T11:57:14.549Z,61.80
2023-04-17T11:59:42.709Z,61.60
2023-04-17T12:02:12.487Z,61.50
2023-04-17T12:04:41.998Z,61.30
2023-04-17T12:07:22.105Z,61.60
2023-04-17T12:09:58.146Z,61.60
2023-04-17T12:12:25.331Z,60.90
2023-04-17T12:14:54.407Z,61.50
2023-04-17T12:17:27.030Z,61.30
2023-04-17T12:19:54.263Z,61.50
2023-04-17T12:22:23.521Z,61.50
2023-04-17T12:24:52.711Z,61.40
2023-04-17T12:27:19.884Z,61.30
2023-04-17T12:29:49.044Z,61.30
2023-04-17T12:32:16.535Z,61.20
2023-04-17T12:34:46.001Z,61.10
2023-04-17T12:37:15.176Z,61.10
2023-04-17T12:39:44.178Z,61.10
2023-04-17T12:42:13.653Z,61.00
2023-04-17T12:44:40.497Z,60.90
2023-04-17T12:47:07.572Z,60.80
2023-04-17T12:49:34.424Z,61.00
2023-04-17T12:52:03.689Z,61.00
2023-04-17T12:54:31.099Z,61.10
2023-04-17T12:57:02.654Z,61.20
2023-04-17T12:59:34.650Z,61.30
2023-04-17T13:02:01.545Z,61.30
2023-04-17T13:04:30.655Z,61.30
2023-04-17T13:06:58.128Z,61.30
2023-04-17T13:09:25.290Z,61.10
2023-04-17T13:11:54.330Z,61.10
2023-04-17T13:14:21.321Z,61.00
2023-04-17T13:16:50.939Z,60.80
2023-04-17T13:19:21.133Z,60.80
2023-04-17T13:21:48.160Z,60.80
2023-04-17T13:24:19.806Z,60.70
2023-04-17T13:26:46.646Z,60.50
2023-04-17T13:29:14.356Z,60.40
2023-04-17T13:31:42.980Z,60.00
2023-04-17T13:34:11.648Z,59.90
2023-04-17T13:36:42.318Z,59.60
2023-04-17T13:39:09.757Z,59.40
2023-04-17T13:41:39.177Z,59.20
2023-04-17T13:44:08.458Z,58.70
2023-04-17T13:46:35.741Z,58.60
2023-04-17T13:49:05.503Z,58.20
2023-04-17T13:51:37.169Z,58.10
2023-04-17T13:54:08.615Z,58.10
2023-04-17T13:56:35.485Z,58.20
2023-04-17T13:59:05.167Z,58.20
2023-04-17T14:01:34.415Z,58.20
2023-04-17T14:04:01.543Z,58.40
2023-04-17T14:06:33.653Z,58.50
2023-04-17T14:09:03.150Z,58.40
2023-04-17T14:11:32.452Z,58.70
2023-04-17T14:14:03.799Z,58.70
2023-04-17T14:16:30.788Z,59.50
2023-04-17T14:19:12.554Z,58.80
2023-04-17T14:21:44.124Z,58.70
2023-04-17T14:24:13.022Z,58.70
2023-04-17T14:26:42.070Z,58.50
2023-04-17T14:29:13.753Z,58.20
2023-04-17T14:31:41.223Z,57.80
2023-04-17T14:34:08.252Z,57.90
2023-04-17T14:36:39.687Z,57.80
2023-04-17T14:39:11.720Z,57.50
2023-04-17T14:41:41.421Z,57.60
2023-04-17T14:44:10.635Z,57.70
2023-04-17T14:46:37.787Z,57.70
2023-04-17T14:49:06.993Z,57.70
2023-04-17T14:51:33.847Z,57.70
2023-04-17T14:54:00.970Z,57.70
2023-04-17T14:56:32.553Z,57.90
2023-04-17T14:58:59.465Z,57.90
2023-04-17T15:01:26.333Z,58.00
2023-04-17T15:03:56.010Z,57.90
2023-04-17T15:06:23.150Z,57.50
2023-04-17T15:08:50.069Z,57.60
2023-04-17T15:11:16.924Z,57.10
2023-04-17T15:13:46.051Z,56.90
2023-04-17T15:16:12.874Z,56.50
2023-04-17T15:18:44.439Z,56.60
2023-04-17T15:21:11.278Z,56.40
2023-04-17T15:23:43.086Z,56.40
2023-04-17T15:26:10.456Z,56.40
2023-04-17T15:28:39.671Z,56.30
2023-04-17T15:31:09.102Z,56.40
2023-04-17T15:33:39.792Z,56.30
2023-04-17T15:36:06.881Z,56.20
2023-04-17T15:38:33.835Z,56.10
2023-04-17T15:41:01.552Z,56.00
2023-04-17T15:43:31.041Z,56.00
2023-04-17T15:45:59.519Z,56.00
2023-04-17T15:48:31.157Z,55.90
2023-04-17T15:51:05.703Z,55.90
2023-04-17T15:53:37.920Z,55.70
2023-04-17T15:56:07.445Z,55.30
2023-04-17T15:58:36.930Z,55.60
2023-04-17T16:01:08.161Z,55.60
2023-04-17T16:03:37.734Z,55.30
2023-04-17T16:06:05.585Z,55.40
2023-04-17T16:08:35.614Z,55.40
2023-04-17T16:11:04.998Z,55.30
2023-04-17T16:13:31.884Z,55.10
2023-04-17T16:16:01.258Z,54.90
2023-04-17T16:18:35.234Z,54.30
2023-04-17T16:21:11.886Z,54.20
2023-04-17T16:23:41.035Z,54.30
2023-04-17T16:26:13.331Z,54.20
2023-04-17T16:28:40.295Z,54.10
2023-04-17T16:31:07.205Z,54.10
2023-04-17T16:33:34.397Z,54.00
2023-04-17T16:36:03.821Z,53.70
2023-04-17T16:38:35.292Z,53.60
2023-04-17T16:41:04.800Z,53.60
2023-04-17T16:43:31.607Z,53.50
2023-04-17T16:46:05.528Z,53.50
2023-04-17T16:48:38.211Z,53.40
2023-04-17T16:51:07.545Z,53.60
2023-04-17T16:53:36.831Z,53.50
2023-04-17T16:56:06.608Z,53.50
2023-04-17T16:58:33.388Z,53.20
2023-04-17T17:01:00.418Z,53.30
2023-04-17T17:03:29.717Z,53.20
2023-04-17T17:05:57.316Z,52.90
2023-04-17T17:08:28.757Z,53.30
2023-04-17T17:10:58.633Z,53.20
2023-04-17T17:13:30.454Z,53.30
2023-04-17T17:15:57.338Z,53.30
2023-04-17T17:18:26.709Z,53.40
2023-04-17T17:20:55.959Z,53.10
2023-04-17T17:23:25.790Z,53.40
2023-04-17T17:25:57.819Z,53.30
2023-04-17T17:28:24.948Z,53.40
2023-04-17T17:31:07.832Z,53.20
2023-04-17T17:33:36.165Z,52.50
2023-04-17T17:36:03.393Z,53.20
2023-04-17T17:38:32.831Z,53.20
2023-04-17T17:41:07.418Z,53.10
2023-04-17T17:43:34.387Z,53.20
2023-04-17T17:46:01.345Z,53.10
2023-04-17T17:48:28.274Z,53.10
2023-04-17T17:50:57.813Z,53.20
2023-04-17T17:53:27.211Z,53.20
2023-04-17T17:55:59.297Z,53.30
2023-04-17T17:58:26.729Z,53.40
2023-04-17T18:00:55.722Z,53.40
2023-04-17T18:03:25.149Z,53.40
2023-04-17T18:05:52.794Z,53.30
2023-04-17T18:08:26.547Z,53.30
2023-04-17T18:10:53.386Z,53.20
2023-04-17T18:13:22.430Z,53.30
2023-04-17T18:15:51.901Z,53.40
2023-04-17T18:18:20.819Z,53.20
2023-04-17T18:20:48.149Z,53.40
2023-04-17T18:23:17.451Z,53.40
2023-04-17T18:25:55.676Z,53.40
2023-04-17T18:28:27.669Z,53.40
2023-04-17T18:30:54.686Z,53.50
2023-04-17T18:33:21.536Z,53.50
2023-04-17T18:35:48.807Z,53.50
2023-04-17T18:38:16.643Z,53.60
2023-04-17T18:40:45.597Z,53.70
2023-04-17T18:43:14.571Z,53.80
2023-04-17T18:45:43.600Z,53.80
2023-04-17T18:48:10.388Z,53.80
2023-04-17T18:50:44.458Z,53.90
2023-04-17T18:53:13.818Z,53.90
2023-04-17T18:55:40.772Z,53.90
2023-04-17T18:58:07.691Z,54.10
2023-04-17T19:00:36.115Z,54.10
2023-04-17T19:03:04.117Z,54.10
2023-04-17T19:05:33.509Z,54.10
2023-04-17T19:08:04.960Z,54.10
2023-04-17T19:10:34.366Z,54.00
2023-04-17T19:13:09.649Z,53.90
2023-04-17T19:15:36.847Z,54.10
2023-04-17T19:18:06.738Z,54.00
2023-04-17T19:20:39.258Z,54.00
2023-04-17T19:23:10.733Z,53.90
2023-04-17T19:25:44.107Z,53.90
2023-04-17T19:28:13.353Z,54.00
2023-04-17T19:30:42.683Z,53.90
2023-04-17T19:33:10.828Z,53.80
2023-04-17T19:35:40.692Z,53.70
2023-04-17T19:38:07.599Z,53.70
2023-04-17T19:40:34.676Z,53.60
2023-04-17T19:43:04.618Z,53.60
2023-04-17T19:45:33.936Z,53.50
2023-04-17T19:48:00.945Z,53.60
2023-04-17T19:50:31.449Z,53.60
2023-04-17T19:53:03.604Z,53.60
2023-04-17T19:55:32.696Z,53.50
2023-04-17T19:58:02.063Z,53.60
2023-04-17T20:00:28.953Z,53.60
2023-04-17T20:02:58.146Z,53.70
2023-04-17T20:05:25.058Z,53.70
2023-04-17T20:07:56.938Z,53.60
2023-04-17T20:10:26.453Z,53.60
2023-04-17T20:12:58.493Z,53.60
2023-04-17T20:15:27.568Z,53.60
2023-04-17T20:17:56.716Z,53.70
2023-04-17T20:20:30.638Z,53.70
2023-04-17T20:23:00.049Z,53.70
2023-04-17T20:25:31.736Z,53.80
2023-04-17T20:27:58.733Z,53.80
2023-04-17T20:30:25.947Z,54.40
2023-04-17T20:32:57.575Z,53.80
2023-04-17T20:35:29.118Z,53.80
2023-04-17T20:37:56.113Z,53.90
2023-04-17T20:40:25.122Z,54.00
2023-04-17T20:42:54.291Z,53.90
2023-04-17T20:45:23.611Z,53.90
2023-04-17T20:50:23.471Z,54.30
2023-04-17T20:52:50.481Z,54.00
2023-04-17T20:55:19.583Z,54.00
2023-04-17T20:57:46.866Z,54.00
2023-04-17T21:00:14.664Z,54.10
2023-04-17T21:02:44.497Z,54.20
2023-04-17T21:05:16.430Z,54.90
2023-04-17T21:07:45.584Z,54.30
2023-04-17T21:10:12.394Z,54.30
2023-04-17T21:12:39.285Z,54.30
2023-04-17T21:15:06.815Z,54.40
2023-04-17T21:17:36.008Z,54.40
2023-04-17T21:20:05.712Z,54.50
2023-04-17T21:22:37.312Z,54.50
2023-04-17T21:25:04.837Z,54.50
2023-04-17T21:27:34.191Z,54.60
2023-04-17T21:30:01.181Z,54.70
2023-04-17T21:32:34.738Z,54.60
2023-04-17T21:35:09.523Z,54.60
2023-04-17T21:37:41.011Z,54.60
2023-04-17T21:40:13.035Z,54.60
2023-04-17T21:42:39.920Z,54.70
2023-04-17T21:45:09.676Z,54.80
2023-04-17T21:47:39.132Z,54.80
2023-04-17T21:50:09.368Z,54.80
2023-04-17T21:52:38.549Z,54.80
2023-04-17T21:55:07.659Z,54.80
2023-04-17T21:57:40.185Z,54.90
2023-04-17T22:00:11.554Z,54.90
2023-04-17T22:02:40.538Z,54.90
2023-04-17T22:05:13.236Z,54.80
2023-04-17T22:07:53.815Z,54.90
2023-04-17T22:10:23.800Z,54.90
2023-04-17T22:12:57.804Z,54.90
2023-04-17T22:15:29.357Z,54.90
2023-04-17T22:17:58.761Z,54.90
2023-04-17T22:20:28.207Z,55.00
2023-04-17T22:22:59.700Z,55.00
2023-04-17T22:25:31.150Z,55.10
2023-04-17T22:27:58.089Z,55.10
2023-04-17T22:30:29.646Z,55.10
2023-04-17T22:33:03.136Z,55.20
2023-04-17T22:35:30.042Z,55.10
2023-04-17T22:37:56.795Z,55.10
2023-04-17T22:40:23.683Z,55.20
2023-04-17T22:42:53.199Z,55.20
2023-04-17T22:45:22.536Z,55.20
2023-04-17T22:47:51.630Z,55.90
2023-04-17T22:50:21.985Z,55.30
2023-04-17T22:52:48.851Z,55.20
2023-04-17T22:55:18.529Z,55.20
2023-04-17T22:57:48.003Z,55.30
2023-04-17T23:00:19.890Z,55.30
2023-04-17T23:02:49.050Z,55.40
2023-04-17T23:05:19.046Z,55.30
2023-04-17T23:07:45.979Z,55.40
2023-04-17T23:10:15.229Z,55.40
2023-04-17T23:12:42.235Z,55.50
2023-04-17T23:15:11.728Z,55.50
2023-04-17T23:17:43.007Z,55.50
2023-04-17T23:20:10.666Z,55.60
2023-04-17T23:22:42.288Z,55.50
2023-04-17T23:25:09.850Z,55.60
2023-04-17T23:27:36.811Z,55.60
2023-04-17T23:30:04.313Z,55.60
2023-04-17T23:32:33.734Z,55.50
2023-04-17T23:35:00.725Z,55.60
2023-04-17T23:37:27.590Z,55.60
2023-04-17T23:39:54.523Z,55.70
2023-04-17T23:42:26.256Z,55.70
2023-04-17T23:44:53.395Z,55.70
2023-04-17T23:47:22.708Z,55.70
2023-04-17T23:49:49.607Z,55.70
2023-04-17T23:52:19.014Z,55.70
2023-04-17T23:54:48.481Z,55.70
2023-04-17T23:57:17.929Z,55.80
2023-04-17T23:59:44.864Z,55.90
